Cushing, Oklahoma
Current Conditions -  °F | °C
As of 9:15 PM on Sunday 21 Dec 2014 (Local Time) from KCUH Reporting Station
Haze Haze  
Wind Chill: 40°   Ceiling: 800
Heat Index: 45°   Visibility: 5mi
Dew Point: 45°   Wind: 8mph
Humidity: 100%   Direction: 160°SSE
Pressure: 29.74"   Gusts: 20mph
Location:  35.99°N, 96.77°W
Report Text: KCUH 220315Z AUTO 16007G17KT 5SM BR OVC008 07/07 A2974 RMK AO2
Loading
Personal Weather Stations






























Interactive Weather Map New forecast layout! Learn more

10-Day Weather Forecast

Advertisements
Track Severe Weather on mobile